createdAt,value
2022-12-23T00:02:11.758Z,92076.50
2022-12-23T00:04:54.639Z,92072.31
2022-12-23T00:07:37.484Z,92067.88
2022-12-23T00:10:20.277Z,92061.97
2022-12-23T00:13:22.184Z,92058.63
2022-12-23T00:16:06.674Z,92050.59
2022-12-23T00:18:49.655Z,92051.69
2022-12-23T00:21:32.484Z,92050.69
2022-12-23T00:24:15.269Z,92043.97
2022-12-23T00:26:58.108Z,92042.38
2022-12-23T00:29:42.257Z,92037.41
2022-12-23T00:32:25.033Z,92031.50
2022-12-23T00:35:08.312Z,92029.75
2022-12-23T00:37:51.113Z,92033.09
2022-12-23T00:40:51.495Z,92033.09
2022-12-23T00:43:34.296Z,92036.59
2022-12-23T00:46:18.657Z,92030.38
2022-12-23T00:49:19.463Z,92025.81
2022-12-23T00:52:02.723Z,92031.41
2022-12-23T00:54:45.583Z,92026.31
2022-12-23T00:57:28.392Z,92029.53
2022-12-23T01:00:12.261Z,92028.28
2022-12-23T01:03:14.086Z,92028.28
2022-12-23T01:05:59.235Z,92023.81
2022-12-23T01:08:42.082Z,92022.56
2022-12-23T01:11:24.894Z,92027.53
2022-12-23T01:14:09.374Z,92018.00
2022-12-23T01:16:52.201Z,92010.16
2022-12-23T01:19:36.860Z,92013.50
2022-12-23T01:22:19.599Z,92006.78
2022-12-23T01:25:02.798Z,92006.66
2022-12-23T01:27:45.584Z,91999.78
2022-12-23T01:30:28.373Z,91995.50
2022-12-23T01:33:11.157Z,91986.88
2022-12-23T01:36:01.093Z,91983.38
2022-12-23T01:38:44.084Z,91997.59
2022-12-23T01:41:46.431Z,91990.59
2022-12-23T01:44:52.524Z,91971.75
2022-12-23T01:47:39.891Z,91979.91
2022-12-23T01:50:26.845Z,91973.06
2022-12-23T01:53:14.585Z,91968.75
2022-12-23T01:56:01.646Z,91971.31
2022-12-23T01:58:48.955Z,91960.44
2022-12-23T02:01:49.828Z,91963.75
2022-12-23T02:04:32.686Z,91967.09
2022-12-23T02:07:33.097Z,91971.56
2022-12-23T02:10:17.767Z,91974.13
2022-12-23T02:13:02.044Z,91980.75
2022-12-23T02:16:09.965Z,91976.25
2022-12-23T02:19:11.025Z,91971.44
2022-12-23T02:22:08.017Z,91972.53
2022-12-23T02:25:31.022Z,91979.78
2022-12-23T02:28:42.534Z,91973.56
2022-12-23T02:31:35.384Z,91976.25
2022-12-23T02:34:21.405Z,91977.72
2022-12-23T02:37:09.386Z,91974.50
2022-12-23T02:39:57.224Z,91988.88
2022-12-23T02:42:47.270Z,91985.38
2022-12-23T02:45:37.148Z,91981.06
2022-12-23T02:48:30.787Z,91980.91
2022-12-23T02:51:16.552Z,91982.53
2022-12-23T02:54:04.008Z,91981.06
2022-12-23T02:56:51.025Z,91984.41
2022-12-23T02:59:38.886Z,91980.56
2022-12-23T03:02:21.878Z,91983.94
2022-12-23T03:05:07.081Z,91981.66
2022-12-23T03:07:49.922Z,91984.72
2022-12-23T03:10:43.854Z,91986.16
2022-12-23T03:13:36.313Z,91981.56
2022-12-23T03:16:24.844Z,91981.41
2022-12-23T03:19:15.564Z,91987.19
2022-12-23T03:22:08.091Z,91989.56
2022-12-23T03:24:56.679Z,91984.34
2022-12-23T03:27:43.808Z,91985.94
2022-12-23T03:30:27.042Z,91977.31
2022-12-23T03:33:14.529Z,91983.06
2022-12-23T03:36:01.454Z,91987.09
2022-12-23T03:38:46.375Z,91989.47
2022-12-23T03:41:32.564Z,91981.69
2022-12-23T03:44:20.581Z,91981.69
2022-12-23T03:47:08.137Z,91983.28
2022-12-23T03:49:54.880Z,91978.81
2022-12-23T03:52:42.319Z,91975.03
2022-12-23T03:55:35.394Z,91978.41
2022-12-23T03:58:38.232Z,91977.28
2022-12-23T04:01:32.592Z,91982.56
2022-12-23T04:04:21.889Z,91981.09
2022-12-23T04:07:11.302Z,91978.00
2022-12-23T04:09:54.906Z,91978.19
2022-12-23T04:12:40.345Z,91976.41
2022-12-23T04:15:24.660Z,91975.09
2022-12-23T04:18:07.612Z,91971.59
2022-12-23T04:20:50.460Z,91974.03
2022-12-23T04:23:33.203Z,91976.06
2022-12-23T04:26:15.997Z,91971.59
2022-12-23T04:29:00.254Z,91971.75
2022-12-23T04:31:43.126Z,91971.75
2022-12-23T04:34:25.971Z,91970.63
2022-12-23T04:37:08.770Z,91967.44
2022-12-23T04:39:51.544Z,91970.00
2022-12-23T04:42:34.375Z,91958.81
2022-12-23T04:45:18.536Z,91965.03
2022-12-23T04:48:01.357Z,91966.78
2022-12-23T04:50:44.157Z,91965.84
2022-12-23T04:53:26.934Z,91966.78
2022-12-23T04:56:09.745Z,91962.50
2022-12-23T04:58:53.546Z,91963.75
2022-12-23T05:01:37.760Z,91965.50
2022-12-23T05:04:20.692Z,91959.56
2022-12-23T05:07:03.624Z,91964.69
2022-12-23T05:09:46.397Z,91949.97
2022-12-23T05:12:30.044Z,91970.03
2022-12-23T05:15:12.779Z,91963.53
2022-12-23T05:17:56.927Z,91963.38
2022-12-23T05:20:39.739Z,91960.97
2022-12-23T05:23:22.533Z,91959.09
2022-12-23T05:26:05.690Z,91954.28
2022-12-23T05:28:48.596Z,91954.75
2022-12-23T05:31:31.455Z,91948.06
2022-12-23T05:34:15.690Z,91966.09
2022-12-23T05:36:58.457Z,91958.44
2022-12-23T05:39:41.246Z,91956.97
2022-12-23T05:42:24.185Z,91962.88
2022-12-23T05:45:07.989Z,91956.03
2022-12-23T05:47:50.792Z,91957.78
2022-12-23T05:50:35.153Z,91957.63
2022-12-23T05:53:18.117Z,91965.44
2022-12-23T05:56:05.001Z,91963.84
2022-12-23T05:58:47.821Z,91975.16
2022-12-23T06:01:30.635Z,91971.78
2022-12-23T06:04:13.546Z,91975.94
2022-12-23T06:06:58.225Z,91975.16
2022-12-23T06:09:40.825Z,91979.44
2022-12-23T06:12:23.688Z,91987.09
2022-12-23T06:15:08.005Z,91990.59
2022-12-23T06:17:50.784Z,91987.25
2022-12-23T06:20:33.586Z,91989.16
2022-12-23T06:23:17.799Z,91991.06
2022-12-23T06:26:01.399Z,91991.06
2022-12-23T06:28:44.249Z,91984.06
2022-12-23T06:31:27.047Z,91991.59
2022-12-23T06:34:09.857Z,91985.50
2022-12-23T06:36:52.611Z,91988.06
2022-12-23T06:39:37.111Z,91988.72
2022-12-23T06:42:19.901Z,91994.47
2022-12-23T06:45:02.771Z,91998.50
2022-12-23T06:47:45.586Z,92006.16
2022-12-23T06:50:28.352Z,92004.69
2022-12-23T06:53:11.376Z,92008.19
2022-12-23T06:56:01.749Z,92010.91
2022-12-23T06:58:44.535Z,92020.63
2022-12-23T07:01:27.600Z,92019.16
2022-12-23T07:04:10.617Z,92023.47
2022-12-23T07:06:53.584Z,92027.91
2022-12-23T07:09:36.377Z,92037.19
2022-12-23T07:12:20.524Z,92036.25
2022-12-23T07:15:03.349Z,92034.47
2022-12-23T07:17:46.173Z,92050.59
2022-12-23T07:20:29.019Z,92042.94
2022-12-23T07:23:11.900Z,92049.78
2022-12-23T07:25:55.757Z,92037.84
2022-12-23T07:28:39.961Z,92049.78
2022-12-23T07:31:22.796Z,92031.25
2022-12-23T07:34:05.657Z,92045.34
2022-12-23T07:36:48.472Z,92044.91
2022-12-23T07:39:31.297Z,92042.06
2022-12-23T07:42:43.634Z,92057.88
2022-12-23T07:45:18.275Z,92059.34
2022-12-23T07:48:02.184Z,92060.81
2022-12-23T07:50:44.995Z,92059.56
2022-12-23T07:53:27.803Z,92062.91
2022-12-23T07:56:10.605Z,92066.13
2022-12-23T07:58:55.010Z,92061.00
2022-12-23T08:01:39.310Z,92072.03
2022-12-23T08:04:22.320Z,92077.00
2022-12-23T08:07:05.168Z,92080.38
2022-12-23T08:09:47.968Z,92077.81
2022-12-23T08:12:30.799Z,92077.66
2022-12-23T08:15:13.623Z,92082.75
2022-12-23T08:17:57.801Z,92081.81
2022-12-23T08:20:40.597Z,92087.59
2022-12-23T08:23:25.049Z,92096.72
2022-12-23T08:26:10.598Z,92087.16
2022-12-23T08:28:53.947Z,92082.72
2022-12-23T08:31:36.953Z,92086.72
2022-12-23T08:34:21.302Z,92081.59
2022-12-23T08:37:04.278Z,92084.81
2022-12-23T08:39:47.195Z,92084.53
2022-12-23T08:42:29.993Z,92086.91
2022-12-23T08:45:13.407Z,92087.44
2022-12-23T08:47:56.211Z,92084.56
2022-12-23T08:50:41.583Z,92076.59
2022-12-23T08:53:24.393Z,92075.66
2022-12-23T08:56:09.178Z,92076.31
2022-12-23T08:58:53.898Z,92087.34
2022-12-23T09:01:36.805Z,92096.47
2022-12-23T09:04:19.711Z,92098.84
2022-12-23T09:07:03.859Z,92102.72
2022-12-23T09:09:47.236Z,92093.16
2022-12-23T09:12:30.044Z,92101.47
2022-12-23T09:15:13.308Z,92102.28
2022-12-23T09:17:56.133Z,92097.97
2022-12-23T09:20:39.650Z,92099.59
2022-12-23T09:23:23.794Z,92098.63
2022-12-23T09:26:07.228Z,92101.81
2022-12-23T09:28:50.047Z,92103.78
2022-12-23T09:31:37.433Z,92110.88
2022-12-23T09:34:20.709Z,92105.13
2022-12-23T09:37:03.751Z,92102.25
2022-12-23T09:39:47.915Z,92103.28
2022-12-23T09:42:47.199Z,92106.69
2022-12-23T09:45:52.393Z,92099.03
2022-12-23T09:48:39.434Z,92113.16
2022-12-23T09:51:24.526Z,92112.53
2022-12-23T09:54:17.188Z,92127.94
2022-12-23T09:57:06.672Z,92122.34
2022-12-23T10:00:02.976Z,92124.91
2022-12-23T10:03:05.756Z,92124.44
2022-12-23T10:06:03.443Z,92127.50
2022-12-23T10:08:50.488Z,92137.25
2022-12-23T10:11:37.972Z,92135.88
2022-12-23T10:14:26.864Z,92134.59
2022-12-23T10:17:15.755Z,92138.44
2022-12-23T10:20:02.996Z,92135.41
2022-12-23T10:22:47.433Z,92144.38
2022-12-23T10:25:36.296Z,92143.91
2022-12-23T10:28:19.714Z,92138.47
2022-12-23T10:34:18.646Z,92141.69
2022-12-23T10:37:07.327Z,92143.13
2022-12-23T10:39:58.677Z,92136.56
2022-12-23T10:42:49.304Z,92121.38
2022-12-23T10:45:42.532Z,92124.72
2022-12-23T10:48:48.604Z,92123.13
2022-12-23T10:51:35.691Z,92122.97
2022-12-23T10:54:24.384Z,92118.47
2022-12-23T10:57:08.112Z,92124.25
2022-12-23T10:59:50.928Z,92122.31
2022-12-23T11:02:48.389Z,92121.22
2022-12-23T11:05:35.217Z,92122.50
2022-12-23T11:08:19.469Z,92116.09
2022-12-23T11:11:02.386Z,92108.25
2022-12-23T11:13:46.944Z,92110.34
2022-12-23T11:16:30.034Z,92109.22
2022-12-23T11:19:16.703Z,92105.53
2022-12-23T11:22:02.532Z,92107.13
2022-12-23T11:24:45.330Z,92111.31
2022-12-23T11:27:28.213Z,92094.31
2022-12-23T11:30:18.872Z,92108.75
2022-12-23T11:33:01.851Z,92099.13
2022-12-23T11:35:45.418Z,92088.88
2022-12-23T11:38:29.915Z,92094.81
2022-12-23T11:41:20.976Z,92096.56
2022-12-23T11:44:07.510Z,92102.50
2022-12-23T11:46:50.733Z,92105.22
2022-12-23T11:49:33.545Z,92098.50
2022-12-23T11:52:21.031Z,92106.34
2022-12-23T11:55:07.010Z,92103.63
2022-12-23T11:57:50.770Z,92103.78
2022-12-23T12:00:40.197Z,92098.81
2022-12-23T12:03:26.817Z,92098.66
2022-12-23T12:06:16.212Z,92101.22
2022-12-23T12:09:00.984Z,92091.94
2022-12-23T12:11:50.115Z,92100.25
2022-12-23T12:14:37.185Z,92091.75
2022-12-23T12:17:25.475Z,92093.38
2022-12-23T12:20:15.469Z,92092.25
2022-12-23T12:23:03.405Z,92089.34
2022-12-23T12:25:51.619Z,92087.44
2022-12-23T12:28:40.012Z,92087.28
2022-12-23T12:31:27.736Z,92090.50
2022-12-23T12:34:26.646Z,92088.72
2022-12-23T12:37:21.300Z,92090.50
2022-12-23T12:40:15.032Z,92088.72
2022-12-23T12:43:02.792Z,92090.31
2022-12-23T12:45:53.006Z,92085.19
2022-12-23T12:48:46.001Z,92084.06
2022-12-23T12:51:34.947Z,92084.88
2022-12-23T12:54:26.273Z,92074.47
2022-12-23T12:57:16.046Z,92071.91
2022-12-23T13:00:05.900Z,92071.91
2022-12-23T13:03:18.784Z,92072.84
2022-12-23T13:06:13.086Z,92067.72
2022-12-23T13:09:03.967Z,92071.09
2022-12-23T13:11:55.952Z,92064.06
2022-12-23T13:14:51.909Z,92065.03
2022-12-23T13:17:40.700Z,92060.69
2022-12-23T13:20:32.385Z,92061.63
2022-12-23T13:23:42.876Z,92065.03
2022-12-23T13:26:33.719Z,92067.59
2022-12-23T13:29:43.518Z,92065.97
2022-12-23T13:32:38.439Z,92055.72
2022-12-23T13:35:35.588Z,92057.31
2022-12-23T13:38:38.049Z,92051.25
2022-12-23T13:41:26.879Z,92050.44
2022-12-23T13:44:13.003Z,92052.03
2022-12-23T13:47:01.768Z,92050.25
2022-12-23T13:49:59.416Z,92038.41
2022-12-23T13:53:02.817Z,92035.84
2022-12-23T13:56:00.454Z,92043.38
2022-12-23T13:58:47.676Z,92033.91
2022-12-23T14:01:36.203Z,92033.13
2022-12-23T14:04:58.356Z,92022.88
2022-12-23T14:07:45.783Z,92015.16
2022-12-23T14:10:30.376Z,92017.56
2022-12-23T14:13:18.816Z,92014.22
2022-12-23T14:16:17.308Z,92016.59
2022-12-23T14:19:20.607Z,92015.81
2022-12-23T14:22:14.620Z,92013.25
2022-12-23T14:25:19.011Z,92005.69
2022-12-23T14:28:14.372Z,92002.34
2022-12-23T14:30:57.559Z,91994.84
2022-12-23T14:33:40.508Z,91998.97
2022-12-23T14:36:24.979Z,91997.41
2022-12-23T14:39:37.863Z,91998.97
2022-12-23T14:42:35.883Z,91999.78
2022-12-23T14:45:36.606Z,92003.94
2022-12-23T14:48:38.484Z,92003.78
2022-12-23T14:51:32.455Z,91996.91
2022-12-23T14:54:16.818Z,91988.56
2022-12-23T14:57:06.651Z,91983.44
2022-12-23T14:59:58.979Z,91985.84
2022-12-23T15:02:43.840Z,91988.41
2022-12-23T15:05:26.820Z,91982.31
2022-12-23T15:08:31.506Z,91990.00
2022-12-23T15:11:21.940Z,91987.44
2022-12-23T15:14:10.806Z,91984.09
2022-12-23T15:16:53.679Z,91993.38
2022-12-23T15:19:46.516Z,91984.09
2022-12-23T15:22:32.772Z,91983.75
2022-12-23T15:25:28.029Z,91986.50
2022-12-23T15:28:18.098Z,91978.81
2022-12-23T15:31:02.023Z,91985.69
2022-12-23T15:34:05.417Z,91978.81
2022-12-23T15:36:54.563Z,91980.72
2022-12-23T15:39:41.956Z,91982.34
2022-12-23T15:42:26.257Z,91974.78
2022-12-23T15:45:32.332Z,91967.44
2022-12-23T15:48:26.071Z,91975.28
2022-12-23T15:51:14.749Z,91968.25
2022-12-23T15:54:02.744Z,91974.81
2022-12-23T15:56:49.453Z,91975.31
2022-12-23T15:59:35.248Z,91969.06
2022-12-23T16:02:59.247Z,91963.75
2022-12-23T16:05:30.583Z,91960.09
2022-12-23T16:08:29.021Z,91956.41
2022-12-23T16:11:19.086Z,91951.13
2022-12-23T16:14:03.918Z,91951.47
2022-12-23T16:16:46.756Z,91956.91
2022-12-23T16:19:44.208Z,91948.72
2022-12-23T16:22:30.187Z,91946.19
2022-12-23T16:25:19.465Z,91942.50
2022-12-23T16:28:07.248Z,91947.44
2022-12-23T16:30:52.670Z,91943.44
2022-12-23T16:33:38.397Z,91946.19
2022-12-23T16:36:32.872Z,91948.13
2022-12-23T16:39:20.272Z,91948.56
2022-12-23T16:42:03.264Z,91952.56
2022-12-23T16:44:47.455Z,91947.44
2022-12-23T16:47:31.725Z,91946.47
2022-12-23T16:50:16.054Z,91948.94
2022-12-23T16:52:58.863Z,91943.00
2022-12-23T16:55:48.268Z,91941.22
2022-12-23T16:58:34.100Z,91951.13
2022-12-23T17:01:23.509Z,91947.97
2022-12-23T17:04:07.201Z,91939.78
2022-12-23T17:06:50.057Z,91931.91
2022-12-23T17:09:32.868Z,91923.28
2022-12-23T17:12:15.770Z,91923.91
2022-12-23T17:14:58.548Z,91905.66
2022-12-23T17:17:42.711Z,91900.53
2022-12-23T17:20:25.764Z,91905.63
2022-12-23T17:23:19.772Z,91905.63
2022-12-23T17:26:02.631Z,91898.06
2022-12-23T17:28:45.713Z,91896.47
2022-12-23T17:31:28.572Z,91886.53
2022-12-23T17:34:17.027Z,91893.72
2022-12-23T17:37:01.260Z,91894.34
2022-12-23T17:39:45.151Z,91896.78
2022-12-23T17:42:27.974Z,91897.75
2022-12-23T17:45:24.749Z,91898.38
2022-12-23T17:48:08.006Z,91897.22
2022-12-23T17:50:52.321Z,91895.31
2022-12-23T17:53:35.134Z,91897.69
2022-12-23T17:56:19.708Z,91898.97
2022-12-23T17:59:02.539Z,91895.25
2022-12-23T18:01:45.622Z,91888.38
2022-12-23T18:04:28.472Z,91887.25
2022-12-23T18:07:13.545Z,91887.09
2022-12-23T18:09:56.350Z,91872.31
2022-12-23T18:12:40.806Z,91879.84
2022-12-23T18:15:25.999Z,91873.78
2022-12-23T18:18:16.738Z,91864.84
2022-12-23T18:21:03.367Z,91858.72
2022-12-23T18:23:47.632Z,91858.44
2022-12-23T18:26:30.467Z,91849.78
2022-12-23T18:29:13.376Z,91854.28
2022-12-23T18:31:56.208Z,91852.22
2022-12-23T18:34:38.979Z,91848.19
2022-12-23T18:37:22.283Z,91858.44
2022-12-23T18:40:07.301Z,91850.25
2022-12-23T18:42:50.536Z,91853.28
2022-12-23T18:45:35.855Z,91846.22
2022-12-23T18:48:18.805Z,91849.41
2022-12-23T18:51:01.610Z,91847.63
2022-12-23T18:53:44.857Z,91851.31
2022-12-23T18:56:28.995Z,91847.59
2022-12-23T18:59:18.578Z,91851.31
2022-12-23T19:02:03.166Z,91830.28
2022-12-23T19:04:46.035Z,91828.84
2022-12-23T19:07:28.980Z,91827.81
2022-12-23T19:10:17.092Z,91827.81
2022-12-23T19:13:01.663Z,91824.06
2022-12-23T19:15:45.580Z,91831.06
2022-12-23T19:18:28.413Z,91838.59
2022-12-23T19:21:11.228Z,91823.94
2022-12-23T19:23:54.032Z,91830.84
2022-12-23T19:26:36.821Z,91840.66
2022-12-23T19:29:20.973Z,91834.69
2022-12-23T19:32:03.841Z,91835.13
2022-12-23T19:34:47.570Z,91838.94
2022-12-23T19:37:32.212Z,91840.56
2022-12-23T19:40:15.267Z,91845.69
2022-12-23T19:42:58.085Z,91837.25
2022-12-23T19:45:42.203Z,91857.25
2022-12-23T19:48:25.013Z,91855.56
2022-12-23T19:51:10.067Z,91851.84
2022-12-23T19:53:53.076Z,91840.72
2022-12-23T19:56:35.848Z,91846.66
2022-12-23T19:59:18.725Z,91858.00
2022-12-23T20:02:02.914Z,91843.38
2022-12-23T20:04:45.816Z,91849.00
2022-12-23T20:07:28.579Z,91856.16
2022-12-23T20:10:12.049Z,91858.09
2022-12-23T20:12:54.822Z,91856.09
2022-12-23T20:15:37.760Z,91855.19
2022-12-23T20:18:21.935Z,91841.66
2022-12-23T20:21:05.313Z,91855.75
2022-12-23T20:23:48.847Z,91856.81
2022-12-23T20:26:31.816Z,91861.84
2022-12-23T20:29:14.925Z,91861.97
2022-12-23T20:31:57.745Z,91855.56
2022-12-23T20:34:41.872Z,91857.63
2022-12-23T20:37:24.664Z,91853.56
2022-12-23T20:40:09.406Z,91861.44
2022-12-23T20:42:52.011Z,91853.38
2022-12-23T20:45:34.938Z,91877.94
2022-12-23T20:48:18.162Z,91880.50
2022-12-23T20:51:07.168Z,91881.13
2022-12-23T20:53:50.360Z,91891.56
2022-12-23T20:56:33.188Z,91906.31
2022-12-23T20:59:15.971Z,91905.50
2022-12-23T21:01:59.415Z,91909.31
2022-12-23T21:04:42.624Z,91907.91
2022-12-23T21:07:26.801Z,91921.50
2022-12-23T21:10:10.716Z,91911.03
2022-12-23T21:12:53.463Z,91897.19
2022-12-23T21:15:36.268Z,91894.00
2022-12-23T21:18:19.386Z,91900.94
2022-12-23T21:21:03.767Z,91898.97
2022-12-23T21:23:47.993Z,91903.13
2022-12-23T21:26:31.733Z,91904.09
2022-12-23T21:29:15.795Z,91905.25
2022-12-23T21:31:59.740Z,91912.00
2022-12-23T21:34:42.638Z,91913.78
2022-12-23T21:37:25.429Z,91920.84
2022-12-23T21:40:12.184Z,91923.88
2022-12-23T21:42:54.979Z,91924.66
2022-12-23T21:45:37.814Z,91921.94
2022-12-23T21:48:20.628Z,91926.25
2022-12-23T21:51:04.767Z,91923.69
2022-12-23T21:53:50.525Z,91915.97
2022-12-23T21:56:34.847Z,91922.09
2022-12-23T21:59:17.667Z,91931.41
2022-12-23T22:02:00.547Z,91923.09
2022-12-23T22:04:43.495Z,91929.00
2022-12-23T22:07:26.333Z,91936.72
2022-12-23T22:10:10.419Z,91936.91
2022-12-23T22:12:54.734Z,91956.50
2022-12-23T22:15:41.803Z,91948.78
2022-12-23T22:18:24.608Z,91962.75
2022-12-23T22:21:09.062Z,91978.97
2022-12-23T22:23:53.272Z,91995.53
2022-12-23T22:26:36.738Z,91994.44
2022-12-23T22:29:20.884Z,91999.44
2022-12-23T22:32:03.858Z,91990.13
2022-12-23T22:34:46.733Z,92000.88
2022-12-23T22:37:29.607Z,92012.13
2022-12-23T22:40:12.847Z,92009.41
2022-12-23T22:42:55.769Z,92003.63
2022-12-23T22:45:39.952Z,92004.59
2022-12-23T22:48:22.956Z,92009.94
2022-12-23T22:51:09.373Z,92011.38
2022-12-23T22:53:52.220Z,92010.78
2022-12-23T22:56:35.203Z,92021.38
2022-12-23T22:59:22.629Z,92037.59
2022-12-23T23:02:06.895Z,92035.34
2022-12-23T23:04:49.987Z,92044.19
2022-12-23T23:07:32.817Z,92052.88
2022-12-23T23:10:16.219Z,92046.75
2022-12-23T23:12:59.019Z,92046.13
2022-12-23T23:15:41.836Z,92041.50
2022-12-23T23:18:27.163Z,92042.66
2022-12-23T23:21:11.922Z,92028.34
2022-12-23T23:23:54.520Z,92036.41
2022-12-23T23:26:37.327Z,92046.84
2022-12-23T23:29:20.129Z,92042.66
2022-12-23T23:32:03.166Z,92048.63
2022-12-23T23:34:47.352Z,92041.06
2022-12-23T23:37:30.164Z,92054.22
2022-12-23T23:40:13.208Z,92047.50
2022-12-23T23:42:56.061Z,92062.13
2022-12-23T23:45:38.889Z,92068.41
2022-12-23T23:48:22.215Z,92074.50
2022-12-23T23:51:07.560Z,92088.28
2022-12-23T23:53:50.459Z,92088.63
2022-12-23T23:56:38.179Z,92084.63
2022-12-23T23:59:22.043Z,92077.25
